Time;durP1;ratioP1;P1;durP2;ratioP2;P2;SDS_P1;SDS_P2;PMS_P1;PMS_P2;Temp;Humidity;BMP_temperature;BMP_pressure;BME280_temperature;BME280_humidity;BME280_pressure;Samples;Min_cycle;Max_cycle;Signal;HPM_P1;HPM_P2
2023/01/30 00:01:35;;;;;;;10.82;4.30;;;;;;;;;;4947567;28;93184;-81
2023/01/30 00:04:02;;;;;;;11.30;4.45;;;;;;;;;;4948053;28;95172;-82
2023/01/30 00:06:28;;;;;;;10.40;4.00;;;;;;;;;;4947988;28;93109;-82
2023/01/30 00:08:55;;;;;;;10.90;4.25;;;;;;;;;;4947748;28;92660;-81
2023/01/30 00:11:21;;;;;;;11.52;4.03;;;;;;;;;;4948262;28;92849;-81
2023/01/30 00:13:49;;;;;;;9.05;3.70;;;;;;;;;;4937898;28;97174;-81
2023/01/30 00:16:16;;;;;;;13.85;3.88;;;;;;;;;;4939256;28;92572;-82
2023/01/30 00:18:43;;;;;;;11.50;3.95;;;;;;;;;;4943730;28;93437;-81
2023/01/30 00:21:11;;;;;;;11.75;3.80;;;;;;;;;;4947977;28;92329;-81
2023/01/30 00:23:37;;;;;;;9.90;4.10;;;;;;;;;;4945350;28;92510;-81
2023/01/30 00:26:04;;;;;;;10.50;3.78;;;;;;;;;;4930222;28;92811;-82
2023/01/30 00:28:31;;;;;;;10.80;3.78;;;;;;;;;;4926139;28;94809;-82
2023/01/30 00:30:57;;;;;;;10.43;3.60;;;;;;;;;;4935565;28;95764;-81
2023/01/30 00:33:24;;;;;;;8.55;3.80;;;;;;;;;;4951671;28;92878;-81
2023/01/30 00:35:52;;;;;;;7.93;3.25;;;;;;;;;;4952514;28;93333;-81
2023/01/30 00:38:19;;;;;;;11.23;3.20;;;;;;;;;;4949486;28;94443;-82
2023/01/30 00:40:46;;;;;;;9.70;3.53;;;;;;;;;;4933852;28;92856;-82
2023/01/30 00:48:45;;;;;;;10.98;3.28;;;;;;;;;;4950079;28;93141;-80
2023/01/30 00:51:12;;;;;;;9.15;3.08;;;;;;;;;;4949017;28;95567;-81
2023/01/30 00:53:38;;;;;;;10.40;3.25;;;;;;;;;;4942007;28;96577;-82
2023/01/30 00:56:05;;;;;;;14.48;4.30;;;;;;;;;;4946565;28;92568;-81
2023/01/30 00:58:32;;;;;;;9.32;2.97;;;;;;;;;;4947685;28;92761;-82
2023/01/30 01:00:59;;;;;;;13.13;3.63;;;;;;;;;;4939580;28;95640;-81
2023/01/30 01:03:25;;;;;;;8.90;3.08;;;;;;;;;;4938550;28;92564;-82
2023/01/30 01:05:52;;;;;;;8.63;3.22;;;;;;;;;;4945584;28;95849;-81
2023/01/30 01:08:19;;;;;;;7.38;3.30;;;;;;;;;;4946498;28;92426;-81
2023/01/30 01:10:45;;;;;;;7.90;3.05;;;;;;;;;;4949588;28;92020;-81
2023/01/30 01:13:11;;;;;;;7.75;3.00;;;;;;;;;;4927875;28;93082;-81
2023/01/30 01:15:38;;;;;;;8.60;2.72;;;;;;;;;;4926154;28;92719;-82
2023/01/30 01:18:05;;;;;;;9.10;3.60;;;;;;;;;;4924052;28;96488;-81
2023/01/30 01:20:31;;;;;;;8.02;3.20;;;;;;;;;;4925018;28;95651;-81
2023/01/30 01:22:58;;;;;;;10.02;3.55;;;;;;;;;;4928263;28;92718;-82
2023/01/30 01:25:24;;;;;;;7.85;3.00;;;;;;;;;;4925642;28;92935;-82
2023/01/30 01:27:51;;;;;;;11.43;3.15;;;;;;;;;;4928938;28;93221;-82
2023/01/30 01:30:18;;;;;;;6.72;3.13;;;;;;;;;;4933712;28;94368;-82
2023/01/30 01:32:44;;;;;;;9.90;2.92;;;;;;;;;;4938031;28;93229;-82
2023/01/30 01:35:10;;;;;;;6.97;3.00;;;;;;;;;;4937597;28;92154;-82
2023/01/30 01:37:37;;;;;;;9.23;3.20;;;;;;;;;;4925410;28;93978;-81
2023/01/30 01:42:49;;;;;;;7.38;2.90;;;;;;;;;;4929091;28;94764;-81
2023/01/30 01:45:23;;;;;;;8.95;2.80;;;;;;;;;;4930299;28;95145;-82
2023/01/30 01:48:04;;;;;;;7.82;2.75;;;;;;;;;;4918174;28;95737;-82
2023/01/30 01:50:37;;;;;;;6.45;2.67;;;;;;;;;;4928307;28;95170;-81
2023/01/30 01:53:03;;;;;;;8.25;2.80;;;;;;;;;;4934189;28;93034;-82
2023/01/30 01:55:30;;;;;;;7.55;2.70;;;;;;;;;;4930122;28;92534;-82
2023/01/30 01:58:17;;;;;;;5.63;2.33;;;;;;;;;;4928304;28;95804;-81
2023/01/30 02:00:46;;;;;;;7.75;2.72;;;;;;;;;;4934469;28;99477;-81
2023/01/30 02:03:16;;;;;;;7.03;2.50;;;;;;;;;;4930083;28;100196;-81
2023/01/30 02:05:47;;;;;;;6.47;2.33;;;;;;;;;;4944443;28;93546;-81
2023/01/30 02:08:16;;;;;;;6.82;2.50;;;;;;;;;;4944815;28;98150;-82
2023/01/30 02:10:51;;;;;;;6.05;2.25;;;;;;;;;;4947389;28;92486;-80
2023/01/30 02:13:18;;;;;;;6.65;2.38;;;;;;;;;;4949898;28;92851;-80
2023/01/30 02:15:46;;;;;;;7.22;2.08;;;;;;;;;;4950467;28;95709;-82
2023/01/30 02:18:13;;;;;;;6.40;2.22;;;;;;;;;;4945458;28;92736;-80
2023/01/30 02:20:39;;;;;;;6.18;2.20;;;;;;;;;;4950715;28;92610;-82
2023/01/30 02:23:25;;;;;;;6.85;2.45;;;;;;;;;;4947489;28;92738;-81
2023/01/30 02:26:10;;;;;;;4.97;2.10;;;;;;;;;;4947449;28;95453;-81
2023/01/30 02:29:09;;;;;;;5.60;2.22;;;;;;;;;;4946752;28;100292;-82
2023/01/30 02:31:46;;;;;;;5.15;1.90;;;;;;;;;;4925032;28;92842;-83
2023/01/30 02:34:21;;;;;;;5.80;2.30;;;;;;;;;;4933214;28;102600;-83
2023/01/30 02:37:07;;;;;;;5.40;1.95;;;;;;;;;;4934292;28;93206;-82
2023/01/30 02:39:52;;;;;;;5.70;2.05;;;;;;;;;;4920004;28;93032;-82
2023/01/30 02:42:27;;;;;;;5.57;2.03;;;;;;;;;;4928504;28;94176;-83
2023/01/30 02:45:00;;;;;;;5.38;1.90;;;;;;;;;;4927803;28;92977;-82
2023/01/30 02:47:38;;;;;;;4.45;1.92;;;;;;;;;;4927503;28;94044;-83
2023/01/30 02:50:12;;;;;;;5.93;1.95;;;;;;;;;;4943319;28;95718;-83
2023/01/30 02:52:39;;;;;;;6.00;1.90;;;;;;;;;;4949705;28;91811;-83
2023/01/30 02:55:07;;;;;;;7.20;1.83;;;;;;;;;;4947673;28;95297;-82
2023/01/30 02:57:33;;;;;;;7.00;2.03;;;;;;;;;;4948983;28;94033;-82
2023/01/30 03:00:02;;;;;;;5.53;2.20;;;;;;;;;;4946001;28;95484;-82
2023/01/30 03:02:32;;;;;;;8.50;2.25;;;;;;;;;;4935935;28;96265;-83
2023/01/30 03:05:07;;;;;;;5.55;2.10;;;;;;;;;;4924164;28;92679;-83
2023/01/30 03:07:42;;;;;;;4.75;1.90;;;;;;;;;;4928439;28;95776;-83
2023/01/30 03:10:15;;;;;;;4.90;1.90;;;;;;;;;;4926974;28;95311;-82
2023/01/30 03:13:05;;;;;;;7.03;2.10;;;;;;;;;;4927716;28;93482;-83
2023/01/30 03:15:39;;;;;;;8.35;2.33;;;;;;;;;;4920645;28;95188;-83
2023/01/30 03:18:06;;;;;;;5.75;1.90;;;;;;;;;;4923479;28;96216;-81
2023/01/30 03:20:36;;;;;;;7.47;2.10;;;;;;;;;;4919950;28;92401;-82
2023/01/30 03:23:04;;;;;;;6.18;2.00;;;;;;;;;;4930514;28;93813;-82
2023/01/30 03:25:31;;;;;;;8.07;2.00;;;;;;;;;;4927589;28;95201;-82
2023/01/30 03:27:58;;;;;;;5.28;2.08;;;;;;;;;;4928381;28;98567;-82
2023/01/30 03:30:25;;;;;;;5.63;1.80;;;;;;;;;;4928041;28;99508;-82
2023/01/30 03:32:59;;;;;;;6.10;1.80;;;;;;;;;;4928346;28;92504;-82
2023/01/30 03:35:26;;;;;;;7.10;1.85;;;;;;;;;;4930702;28;93375;-82
2023/01/30 03:37:52;;;;;;;6.90;1.80;;;;;;;;;;4917485;28;95609;-83
2023/01/30 03:40:19;;;;;;;5.68;1.85;;;;;;;;;;4910391;28;92982;-83
2023/01/30 03:42:45;;;;;;;6.28;2.28;;;;;;;;;;4934148;28;95293;-82
2023/01/30 03:45:12;;;;;;;7.05;1.83;;;;;;;;;;4945088;28;95603;-82
2023/01/30 03:47:40;;;;;;;7.53;2.00;;;;;;;;;;4931149;28;94891;-82
2023/01/30 03:50:07;;;;;;;6.95;1.90;;;;;;;;;;4936136;28;97924;-82
2023/01/30 03:52:34;;;;;;;5.85;1.85;;;;;;;;;;4946400;28;93175;-83
2023/01/30 03:55:01;;;;;;;6.30;2.13;;;;;;;;;;4930987;28;94926;-83
2023/01/30 03:57:28;;;;;;;7.35;1.88;;;;;;;;;;4946848;28;93778;-83
2023/01/30 03:59:54;;;;;;;5.20;1.90;;;;;;;;;;4947013;28;92898;-83
2023/01/30 04:02:22;;;;;;;6.80;2.00;;;;;;;;;;4933108;28;95823;-83
2023/01/30 04:04:49;;;;;;;5.53;1.83;;;;;;;;;;4955977;28;95855;-84
2023/01/30 04:07:16;;;;;;;6.45;1.85;;;;;;;;;;4954372;28;91794;-83
2023/01/30 04:09:44;;;;;;;5.80;1.63;;;;;;;;;;4936728;28;95134;-84
2023/01/30 04:12:12;;;;;;;5.40;1.75;;;;;;;;;;4952004;28;92518;-83
2023/01/30 04:14:47;;;;;;;7.80;1.70;;;;;;;;;;4960688;28;94948;-83
2023/01/30 04:17:22;;;;;;;6.80;1.75;;;;;;;;;;4966681;28;93095;-83
2023/01/30 04:20:14;;;;;;;7.07;1.80;;;;;;;;;;4949933;28;92843;-82
2023/01/30 04:22:46;;;;;;;5.43;1.80;;;;;;;;;;4966050;28;94298;-82
2023/01/30 04:25:12;;;;;;;8.10;1.90;;;;;;;;;;4960267;28;94801;-82
2023/01/30 04:27:39;;;;;;;6.18;1.77;;;;;;;;;;4950484;28;92904;-82
2023/01/30 04:30:12;;;;;;;5.78;1.77;;;;;;;;;;4958899;28;95186;-83
2023/01/30 04:32:39;;;;;;;9.10;1.90;;;;;;;;;;4925175;28;91866;-83
2023/01/30 04:35:07;;;;;;;6.63;1.75;;;;;;;;;;4929377;28;94296;-83
2023/01/30 04:37:34;;;;;;;8.05;1.90;;;;;;;;;;4934524;28;93061;-83
2023/01/30 04:40:00;;;;;;;6.22;1.50;;;;;;;;;;4930771;28;95596;-83
2023/01/30 04:42:27;;;;;;;8.63;1.90;;;;;;;;;;4927239;28;96812;-83
2023/01/30 04:45:17;;;;;;;6.68;1.83;;;;;;;;;;4909339;28;92878;-83
2023/01/30 04:47:44;;;;;;;6.32;1.77;;;;;;;;;;4943854;28;92810;-82
2023/01/30 04:50:10;;;;;;;7.95;1.75;;;;;;;;;;4938838;28;95259;-83
2023/01/30 04:52:37;;;;;;;7.20;2.10;;;;;;;;;;4949752;28;96088;-83
2023/01/30 04:55:06;;;;;;;6.35;1.98;;;;;;;;;;4946368;28;95215;-83
2023/01/30 04:57:33;;;;;;;8.85;1.85;;;;;;;;;;4931370;28;94023;-83
2023/01/30 04:59:59;;;;;;;8.70;1.80;;;;;;;;;;4926046;28;92590;-83
2023/01/30 05:02:26;;;;;;;6.45;1.60;;;;;;;;;;4930258;28;95113;-83
2023/01/30 05:04:52;;;;;;;7.40;1.80;;;;;;;;;;4948485;28;96073;-82
2023/01/30 05:07:19;;;;;;;6.82;1.80;;;;;;;;;;4948950;28;92493;-82
2023/01/30 05:09:45;;;;;;;6.15;1.77;;;;;;;;;;4948234;28;94993;-81
2023/01/30 05:12:12;;;;;;;9.43;2.10;;;;;;;;;;4941576;28;93719;-81
2023/01/30 05:14:40;;;;;;;6.78;1.50;;;;;;;;;;4957168;28;92786;-81
2023/01/30 05:17:07;;;;;;;8.05;1.70;;;;;;;;;;4957752;28;94218;-82
2023/01/30 05:19:33;;;;;;;9.77;2.03;;;;;;;;;;4954428;28;93074;-82
2023/01/30 05:22:00;;;;;;;9.75;1.83;;;;;;;;;;4949617;28;92138;-81
2023/01/30 05:24:26;;;;;;;6.45;1.65;;;;;;;;;;4949269;28;93843;-82
2023/01/30 05:26:53;;;;;;;7.57;1.70;;;;;;;;;;4951008;28;92901;-82
2023/01/30 05:29:19;;;;;;;6.82;1.80;;;;;;;;;;4948270;28;94880;-82
2023/01/30 05:31:46;;;;;;;6.10;1.58;;;;;;;;;;4934752;28;93265;-82
2023/01/30 05:34:12;;;;;;;7.90;1.48;;;;;;;;;;4932462;28;92527;-82
2023/01/30 05:36:39;;;;;;;7.32;1.77;;;;;;;;;;4930482;28;92895;-81
2023/01/30 05:39:05;;;;;;;5.78;1.40;;;;;;;;;;4925527;28;92828;-80
2023/01/30 05:41:32;;;;;;;8.65;1.60;;;;;;;;;;4930661;28;92916;-80
2023/01/30 05:43:58;;;;;;;7.97;1.98;;;;;;;;;;4929701;28;92832;-79
2023/01/30 05:46:25;;;;;;;10.15;2.10;;;;;;;;;;4930674;28;91942;-82
2023/01/30 05:48:52;;;;;;;9.90;1.85;;;;;;;;;;4929832;28;92589;-82
2023/01/30 05:51:19;;;;;;;7.47;1.40;;;;;;;;;;4929100;28;93744;-82
2023/01/30 05:53:46;;;;;;;;;;;;;;;;;;4927103;28;95317;-80
2023/01/30 05:56:12;;;;;;;7.75;1.60;;;;;;;;;;4933066;28;110542;-82
2023/01/30 05:58:38;;;;;;;10.55;2.08;;;;;;;;;;4930804;28;92988;-82
2023/01/30 06:01:08;;;;;;;6.53;1.65;;;;;;;;;;4934296;28;92768;-82
2023/01/30 06:03:35;;;;;;;6.90;1.63;;;;;;;;;;4922549;28;93100;-80
2023/01/30 06:06:02;;;;;;;7.93;1.60;;;;;;;;;;4926945;28;92867;-80
2023/01/30 06:08:29;;;;;;;6.68;1.60;;;;;;;;;;4929839;28;93839;-80
2023/01/30 06:11:06;;;;;;;10.07;1.70;;;;;;;;;;4930570;28;92373;-80
2023/01/30 06:13:33;;;;;;;7.32;1.63;;;;;;;;;;4929972;28;93038;-80
2023/01/30 06:16:00;;;;;;;8.95;1.63;;;;;;;;;;4931677;28;92990;-80
2023/01/30 06:18:26;;;;;;;9.85;1.90;;;;;;;;;;4929866;28;95667;-80
2023/01/30 06:20:53;;;;;;;8.35;1.98;;;;;;;;;;4917331;28;96322;-80
2023/01/30 06:23:20;;;;;;;10.07;1.80;;;;;;;;;;4922041;28;93321;-81
2023/01/30 06:25:47;;;;;;;9.50;1.77;;;;;;;;;;4920475;28;92644;-82
2023/01/30 06:28:14;;;;;;;8.07;1.85;;;;;;;;;;4930785;28;93075;-80
2023/01/30 06:30:40;;;;;;;10.13;1.95;;;;;;;;;;4925156;28;93375;-81
2023/01/30 06:33:07;;;;;;;9.57;1.67;;;;;;;;;;4929481;28;92596;-80
2023/01/30 06:35:35;;;;;;;7.72;1.80;;;;;;;;;;4922635;28;92753;-80
2023/01/30 06:38:02;;;;;;;12.07;2.28;;;;;;;;;;4917843;28;93124;-80
2023/01/30 06:40:28;;;;;;;10.20;2.08;;;;;;;;;;4914846;28;92668;-80
2023/01/30 06:42:55;;;;;;;8.88;1.95;;;;;;;;;;4927839;28;95844;-81
2023/01/30 06:45:21;;;;;;;8.27;1.33;;;;;;;;;;4929207;28;92860;-82
2023/01/30 06:47:48;;;;;;;9.25;1.77;;;;;;;;;;4923486;28;93031;-82
2023/01/30 06:50:16;;;;;;;9.90;2.17;;;;;;;;;;4941869;28;93250;-82
2023/01/30 06:52:44;;;;;;;9.88;1.70;;;;;;;;;;4947624;28;92891;-82
2023/01/30 06:55:11;;;;;;;9.65;2.30;;;;;;;;;;4947043;28;95080;-82
2023/01/30 06:57:37;;;;;;;9.50;1.73;;;;;;;;;;4950257;28;93248;-83
2023/01/30 07:00:05;;;;;;;9.85;2.05;;;;;;;;;;4946885;28;91895;-82
2023/01/30 07:02:34;;;;;;;10.93;1.75;;;;;;;;;;4947374;28;92703;-82
2023/01/30 07:05:04;;;;;;;9.07;1.98;;;;;;;;;;4946080;28;92699;-82
2023/01/30 07:07:30;;;;;;;12.50;1.98;;;;;;;;;;4946749;28;95042;-82
2023/01/30 07:09:57;;;;;;;9.82;1.80;;;;;;;;;;4947783;28;93209;-82
2023/01/30 07:12:33;;;;;;;10.57;2.05;;;;;;;;;;4947854;28;92546;-81
2023/01/30 07:14:59;;;;;;;14.30;2.10;;;;;;;;;;4941003;28;92970;-80
2023/01/30 07:17:26;;;;;;;12.45;2.00;;;;;;;;;;4917614;28;95748;-80
2023/01/30 07:19:52;;;;;;;12.52;2.45;;;;;;;;;;4917849;28;92959;-81
2023/01/30 07:22:18;;;;;;;12.70;2.30;;;;;;;;;;4929633;28;92801;-80
2023/01/30 07:24:45;;;;;;;10.65;2.10;;;;;;;;;;4923183;28;92725;-81
2023/01/30 07:27:12;;;;;;;11.85;2.10;;;;;;;;;;4926352;28;93119;-80
2023/01/30 07:29:38;;;;;;;10.63;2.03;;;;;;;;;;4927858;28;93144;-80
2023/01/30 07:32:05;;;;;;;8.95;1.90;;;;;;;;;;4910594;28;95431;-80
2023/01/30 07:34:32;;;;;;;8.60;1.90;;;;;;;;;;4926925;28;95210;-81
2023/01/30 07:36:59;;;;;;;11.27;2.10;;;;;;;;;;4942200;28;92909;-80
2023/01/30 07:39:25;;;;;;;10.55;2.20;;;;;;;;;;4944712;28;92930;-80
2023/01/30 07:41:51;;;;;;;16.20;2.25;;;;;;;;;;4946069;28;95212;-82
2023/01/30 07:44:20;;;;;;;15.38;2.42;;;;;;;;;;4939762;28;93241;-80
2023/01/30 07:46:46;;;;;;;14.75;2.10;;;;;;;;;;4927932;28;92983;-79
2023/01/30 07:49:12;;;;;;;13.43;1.95;;;;;;;;;;4928107;28;93074;-80
2023/01/30 07:51:39;;;;;;;15.05;2.03;;;;;;;;;;4926985;28;92955;-82
2023/01/30 07:54:05;;;;;;;10.52;2.42;;;;;;;;;;4927195;28;92952;-81
2023/01/30 07:56:32;;;;;;;10.13;2.13;;;;;;;;;;4926373;28;95546;-81
2023/01/30 07:58:58;;;;;;;12.82;2.08;;;;;;;;;;4922801;28;94441;-81
2023/01/30 08:01:25;;;;;;;8.85;1.83;;;;;;;;;;4931899;28;96106;-81
2023/01/30 08:03:51;;;;;;;17.40;2.38;;;;;;;;;;4930711;28;93302;-81
2023/01/30 08:06:17;;;;;;;14.00;2.20;;;;;;;;;;4929588;28;92696;-81
2023/01/30 08:08:45;;;;;;;10.88;2.28;;;;;;;;;;4942869;28;94362;-82
2023/01/30 08:11:11;;;;;;;10.05;2.00;;;;;;;;;;4947325;28;92885;-82
2023/01/30 08:13:37;;;;;;;11.43;2.05;;;;;;;;;;4947328;28;92769;-82
2023/01/30 08:16:05;;;;;;;9.38;2.00;;;;;;;;;;4946619;28;93711;-82
2023/01/30 08:18:32;;;;;;;10.80;2.13;;;;;;;;;;4945546;28;92747;-82
2023/01/30 08:20:59;;;;;;;9.25;1.90;;;;;;;;;;4945608;28;94980;-82
2023/01/30 08:23:26;;;;;;;;;;;;;;;;;;4945643;28;93625;-82
2023/01/30 08:25:55;;;;;;;8.57;2.05;;;;;;;;;;4947201;28;110465;-82
2023/01/30 08:28:22;;;;;;;7.40;1.70;;;;;;;;;;4947961;28;94100;-82
2023/01/30 08:30:50;;;;;;;10.07;2.00;;;;;;;;;;4939833;28;92947;-82
2023/01/30 08:33:17;;;;;;;9.43;1.80;;;;;;;;;;4922842;28;92927;-82
2023/01/30 08:35:44;;;;;;;10.40;1.88;;;;;;;;;;4927799;28;93065;-82
2023/01/30 08:38:10;;;;;;;8.43;1.83;;;;;;;;;;4921203;28;92289;-83
2023/01/30 08:40:37;;;;;;;10.43;1.73;;;;;;;;;;4948602;28;92544;-81
2023/01/30 08:43:03;;;;;;;8.07;1.67;;;;;;;;;;4949980;28;93316;-82
2023/01/30 08:45:30;;;;;;;6.38;1.60;;;;;;;;;;4949070;28;95171;-81
2023/01/30 08:47:57;;;;;;;8.38;1.80;;;;;;;;;;4941160;28;96224;-81
2023/01/30 08:50:23;;;;;;;;;;;;;;;;;;4941258;28;92381;-81
2023/01/30 08:52:50;;;;;;;5.70;1.48;;;;;;;;;;4957160;28;92455;-80
2023/01/30 08:55:17;;;;;;;10.75;2.20;;;;;;;;;;4949160;28;93392;-82
2023/01/30 08:57:43;;;;;;;8.38;1.80;;;;;;;;;;4950438;28;92435;-83
2023/01/30 09:00:10;;;;;;;8.15;1.67;;;;;;;;;;4937166;28;93106;-82
2023/01/30 09:02:36;;;;;;;8.63;1.58;;;;;;;;;;4946608;28;92830;-83
2023/01/30 09:05:03;;;;;;;9.40;1.63;;;;;;;;;;4949422;28;93097;-83
2023/01/30 09:07:30;;;;;;;8.98;1.85;;;;;;;;;;4942253;28;92819;-82
2023/01/30 09:09:56;;;;;;;6.85;1.35;;;;;;;;;;4939859;28;95649;-82
2023/01/30 09:12:23;;;;;;;8.38;1.60;;;;;;;;;;4948073;28;96207;-83
2023/01/30 09:14:51;;;;;;;8.07;1.70;;;;;;;;;;4948352;28;93276;-82
2023/01/30 09:17:18;;;;;;;6.57;1.50;;;;;;;;;;4950201;28;93218;-81
2023/01/30 09:19:44;;;;;;;5.70;1.48;;;;;;;;;;4949129;28;92897;-82
2023/01/30 09:22:11;;;;;;;6.53;1.60;;;;;;;;;;4949950;28;93768;-81
2023/01/30 09:24:37;;;;;;;7.03;1.58;;;;;;;;;;4949926;28;92989;-82
2023/01/30 09:27:04;;;;;;;6.35;1.48;;;;;;;;;;4947490;28;95884;-82
2023/01/30 09:29:30;;;;;;;9.07;1.98;;;;;;;;;;4949335;28;93197;-82
2023/01/30 09:31:57;;;;;;;7.07;1.60;;;;;;;;;;4948854;28;92605;-81
2023/01/30 09:34:27;;;;;;;;;;;;;;;;;;4948122;28;95967;-80
2023/01/30 09:36:54;;;;;;;10.07;1.67;;;;;;;;;;4949617;28;117873;-80
2023/01/30 09:39:21;;;;;;;6.10;1.50;;;;;;;;;;4943379;28;93049;-82
2023/01/30 09:42:06;;;;;;;10.15;1.80;;;;;;;;;;4930763;28;92938;-81
2023/01/30 09:44:51;;;;;;;5.68;1.70;;;;;;;;;;4927620;28;93083;-82
2023/01/30 09:47:27;;;;;;;7.78;1.48;;;;;;;;;;4916336;28;93687;-80
2023/01/30 09:49:57;;;;;;;7.13;1.50;;;;;;;;;;4927229;28;93433;-81
2023/01/30 09:52:30;;;;;;;6.90;1.65;;;;;;;;;;4927156;28;92155;-82
2023/01/30 09:55:02;;;;;;;6.40;1.45;;;;;;;;;;4932275;28;92514;-81
2023/01/30 09:57:28;;;;;;;9.15;1.70;;;;;;;;;;4919477;28;92639;-82
2023/01/30 10:00:13;;;;;;;6.38;1.52;;;;;;;;;;4934149;28;95117;-82
2023/01/30 10:02:46;;;;;;;7.65;1.50;;;;;;;;;;4947352;28;98131;-82
2023/01/30 10:05:13;;;;;;;4.80;1.48;;;;;;;;;;4949400;28;92482;-82
2023/01/30 10:07:51;;;;;;;6.28;1.52;;;;;;;;;;4949606;28;92959;-83
2023/01/30 10:10:25;;;;;;;5.82;1.50;;;;;;;;;;4948021;28;94270;-82
2023/01/30 10:13:01;;;;;;;4.53;1.23;;;;;;;;;;4947924;28;93037;-83
2023/01/30 10:15:40;;;;;;;5.55;1.20;;;;;;;;;;4948974;28;93064;-82
2023/01/30 10:18:27;;;;;;;7.80;1.67;;;;;;;;;;4941888;28;92480;-83
2023/01/30 10:21:03;;;;;;;7.13;1.50;;;;;;;;;;4949364;28;92463;-82
2023/01/30 10:23:58;;;;;;;5.03;1.30;;;;;;;;;;4949377;28;92963;-83
2023/01/30 10:26:26;;;;;;;7.32;1.40;;;;;;;;;;4942298;28;95570;-82
2023/01/30 10:28:55;;;;;;;7.65;1.50;;;;;;;;;;4948817;28;95039;-82
2023/01/30 10:31:44;;;;;;;6.20;1.50;;;;;;;;;;4943951;28;93669;-82
2023/01/30 10:34:17;;;;;;;6.30;1.30;;;;;;;;;;4935029;28;92712;-83
2023/01/30 10:37:07;;;;;;;7.20;1.40;;;;;;;;;;4940705;28;93286;-83
2023/01/30 10:39:33;;;;;;;5.72;1.33;;;;;;;;;;4935533;28;93199;-83
2023/01/30 10:42:09;;;;;;;7.60;1.50;;;;;;;;;;4946636;28;93342;-82
2023/01/30 10:44:38;;;;;;;6.43;1.40;;;;;;;;;;4941401;28;92340;-83
2023/01/30 10:47:05;;;;;;;6.97;1.48;;;;;;;;;;4942437;28;92631;-83
2023/01/30 10:49:51;;;;;;;5.38;1.40;;;;;;;;;;4944857;28;92899;-84
2023/01/30 10:52:36;;;;;;;6.55;1.48;;;;;;;;;;4939531;28;96644;-84
2023/01/30 10:55:05;;;;;;;6.40;1.38;;;;;;;;;;4941278;28;93056;-83
2023/01/30 10:57:39;;;;;;;9.25;1.70;;;;;;;;;;4948224;28;93025;-83
2023/01/30 11:00:12;;;;;;;8.63;1.67;;;;;;;;;;4944954;28;96274;-83
2023/01/30 11:02:41;;;;;;;6.28;1.27;;;;;;;;;;4945820;28;92842;-84
2023/01/30 11:05:15;;;;;;;8.35;1.50;;;;;;;;;;4949137;28;92848;-83
2023/01/30 11:07:42;;;;;;;6.20;1.58;;;;;;;;;;4948537;28;92863;-83
2023/01/30 11:10:14;;;;;;;4.97;1.20;;;;;;;;;;4945643;28;92716;-84
2023/01/30 11:12:41;;;;;;;5.68;1.30;;;;;;;;;;4943132;28;93752;-83
2023/01/30 11:15:08;;;;;;;5.38;1.40;;;;;;;;;;4944528;28;93297;-84
2023/01/30 11:17:40;;;;;;;4.50;1.20;;;;;;;;;;4936544;28;95255;-83
2023/01/30 11:20:07;;;;;;;6.20;1.20;;;;;;;;;;4945427;28;93826;-82
2023/01/30 11:22:35;;;;;;;5.68;1.38;;;;;;;;;;4946919;28;92890;-82
2023/01/30 11:25:15;;;;;;;5.47;1.25;;;;;;;;;;4945664;28;93154;-83
2023/01/30 11:27:50;;;;;;;6.20;1.20;;;;;;;;;;4950769;28;93131;-84
2023/01/30 11:30:18;;;;;;;4.93;1.30;;;;;;;;;;4946223;28;92806;-84
2023/01/30 11:32:47;;;;;;;5.88;1.52;;;;;;;;;;4952873;28;93201;-82
2023/01/30 11:35:13;;;;;;;6.93;1.23;;;;;;;;;;4948072;28;92780;-82
2023/01/30 11:37:41;;;;;;;5.22;1.38;;;;;;;;;;4946891;28;92925;-83
2023/01/30 11:40:16;;;;;;;7.03;1.30;;;;;;;;;;4948316;28;93189;-82
2023/01/30 11:42:48;;;;;;;5.90;1.42;;;;;;;;;;4949149;28;95052;-83
2023/01/30 11:45:16;;;;;;;7.38;1.52;;;;;;;;;;4944086;28;96574;-82
2023/01/30 11:47:46;;;;;;;6.15;1.30;;;;;;;;;;4949990;28;93959;-82
2023/01/30 11:50:26;;;;;;;7.00;1.30;;;;;;;;;;4953194;28;98836;-82
2023/01/30 11:52:59;;;;;;;7.03;1.38;;;;;;;;;;4956693;28;92602;-82
2023/01/30 11:55:26;;;;;;;4.88;1.20;;;;;;;;;;4970477;28;92187;-81
2023/01/30 11:57:57;;;;;;;7.20;1.45;;;;;;;;;;4967687;28;92810;-82
2023/01/30 12:00:44;;;;;;;5.97;1.30;;;;;;;;;;4968593;28;95643;-81
2023/01/30 12:03:15;;;;;;;7.03;1.45;;;;;;;;;;4957757;28;92550;-82
2023/01/30 12:05:43;;;;;;;5.95;1.35;;;;;;;;;;4967868;28;92462;-82
2023/01/30 12:08:22;;;;;;;5.13;1.20;;;;;;;;;;4955154;28;96364;-82
2023/01/30 12:11:22;;;;;;;6.07;1.20;;;;;;;;;;4958021;28;93465;-82
2023/01/30 12:13:49;;;;;;;6.10;1.33;;;;;;;;;;4965458;28;92565;-82
2023/01/30 12:16:21;;;;;;;4.43;1.20;;;;;;;;;;4965610;28;92636;-82
2023/01/30 12:19:03;;;;;;;5.43;1.20;;;;;;;;;;4957178;28;92845;-81
2023/01/30 12:21:35;;;;;;;7.10;1.63;;;;;;;;;;4946049;28;93129;-82
2023/01/30 12:24:05;;;;;;;6.07;1.40;;;;;;;;;;4946068;28;92730;-81
2023/01/30 12:26:39;;;;;;;5.63;1.20;;;;;;;;;;4944274;28;93269;-82
2023/01/30 12:29:06;;;;;;;6.05;1.60;;;;;;;;;;4941911;28;93106;-81
2023/01/30 12:31:35;;;;;;;5.00;1.40;;;;;;;;;;4933199;28;92749;-82
2023/01/30 12:34:02;;;;;;;3.08;1.10;;;;;;;;;;4932845;28;94928;-82
2023/01/30 12:36:39;;;;;;;6.05;1.40;;;;;;;;;;4934356;28;93088;-82
2023/01/30 12:39:24;;;;;;;5.32;1.30;;;;;;;;;;4927251;28;93505;-81
2023/01/30 12:42:00;;;;;;;5.63;1.35;;;;;;;;;;4941961;28;93134;-81
2023/01/30 12:44:56;;;;;;;7.07;1.40;;;;;;;;;;4932908;28;92779;-82
2023/01/30 12:47:33;;;;;;;6.78;1.23;;;;;;;;;;4924040;28;93443;-81
2023/01/30 12:50:07;;;;;;;6.95;1.60;;;;;;;;;;4932135;28;93555;-80
2023/01/30 12:52:52;;;;;;;7.53;1.73;;;;;;;;;;4927688;28;92142;-81
2023/01/30 12:55:33;;;;;;;6.90;1.42;;;;;;;;;;4934148;28;92776;-81
2023/01/30 12:58:02;;;;;;;5.75;1.50;;;;;;;;;;4942642;28;94523;-80
2023/01/30 13:00:29;;;;;;;6.25;1.30;;;;;;;;;;4928289;28;95377;-80
2023/01/30 13:02:55;;;;;;;8.23;1.70;;;;;;;;;;4930521;28;93254;-81
2023/01/30 13:05:33;;;;;;;7.03;1.48;;;;;;;;;;4930783;28;92721;-82
2023/01/30 13:08:06;;;;;;;6.15;1.38;;;;;;;;;;4931224;28;93066;-81
2023/01/30 13:10:39;;;;;;;8.32;1.50;;;;;;;;;;4957271;28;93078;-80
2023/01/30 13:13:05;;;;;;;;;;;;;;;;;;4944563;28;92611;-80
2023/01/30 13:15:32;;;;;;;8.02;1.70;;;;;;;;;;4944487;28;121500;-82
2023/01/30 13:18:14;;;;;;;7.20;1.50;;;;;;;;;;4942882;28;92644;-77
2023/01/30 13:20:46;;;;;;;6.00;1.60;;;;;;;;;;4944955;28;93214;-81
2023/01/30 13:23:31;;;;;;;7.40;1.48;;;;;;;;;;4943740;28;93267;-81
2023/01/30 13:25:57;;;;;;;6.50;1.60;;;;;;;;;;4946870;28;94919;-80
2023/01/30 13:28:26;;;;;;;6.90;1.60;;;;;;;;;;4943801;28;99649;-80
2023/01/30 13:30:54;;;;;;;7.35;1.77;;;;;;;;;;4940795;28;93440;-82
2023/01/30 13:33:23;;;;;;;6.88;1.70;;;;;;;;;;4948250;28;92932;-82
2023/01/30 13:36:01;;;;;;;5.72;1.40;;;;;;;;;;4945628;28;93679;-80
2023/01/30 13:38:28;;;;;;;6.68;1.50;;;;;;;;;;4945913;28;97786;-80
2023/01/30 13:40:56;;;;;;;5.97;1.30;;;;;;;;;;4948345;28;92721;-82
2023/01/30 13:43:29;;;;;;;6.32;1.38;;;;;;;;;;4951143;28;92822;-82
2023/01/30 13:45:58;;;;;;;7.63;1.63;;;;;;;;;;4938974;28;92431;-82
2023/01/30 13:48:27;;;;;;;8.02;1.63;;;;;;;;;;4947939;28;97380;-81
2023/01/30 13:51:17;;;;;;;6.97;1.60;;;;;;;;;;4944863;28;96265;-81
2023/01/30 13:53:43;;;;;;;5.63;1.45;;;;;;;;;;4946578;28;92747;-79
2023/01/30 13:56:28;;;;;;;6.72;1.40;;;;;;;;;;4948175;28;92939;-81
2023/01/30 13:59:08;;;;;;;6.95;1.60;;;;;;;;;;4947802;28;93150;-79
2023/01/30 14:01:53;;;;;;;6.80;1.42;;;;;;;;;;4962922;28;92485;-80
2023/01/30 14:04:39;;;;;;;6.68;1.30;;;;;;;;;;4958256;28;92728;-81
2023/01/30 14:07:11;;;;;;;6.13;1.30;;;;;;;;;;4943734;28;92557;-82
2023/01/30 14:10:01;;;;;;;6.18;1.35;;;;;;;;;;4950553;28;92195;-82
2023/01/30 14:12:30;;;;;;;5.70;1.27;;;;;;;;;;4945141;28;97597;-81
2023/01/30 14:15:19;;;;;;;5.63;1.42;;;;;;;;;;4950743;28;93717;-81
2023/01/30 14:17:56;;;;;;;6.07;1.40;;;;;;;;;;4948120;28;95316;-80
2023/01/30 14:20:23;;;;;;;6.15;1.40;;;;;;;;;;4942726;28;93948;-80
2023/01/30 14:22:54;;;;;;;5.68;1.40;;;;;;;;;;4933518;28;93052;-80
2023/01/30 14:25:31;;;;;;;7.97;1.70;;;;;;;;;;4935802;28;92558;-80
2023/01/30 14:27:58;;;;;;;6.63;1.67;;;;;;;;;;4950821;28;93006;-80
2023/01/30 14:30:30;;;;;;;6.22;1.48;;;;;;;;;;4937071;28;97897;-79
2023/01/30 14:32:59;;;;;;;6.22;1.58;;;;;;;;;;4945526;28;93649;-81
2023/01/30 14:35:29;;;;;;;4.97;1.40;;;;;;;;;;4945042;28;92208;-80
2023/01/30 14:38:16;;;;;;;5.68;1.27;;;;;;;;;;4948917;28;92841;-80
2023/01/30 14:40:43;;;;;;;6.03;1.52;;;;;;;;;;4926967;28;97763;-80
2023/01/30 14:43:18;;;;;;;9.15;1.67;;;;;;;;;;4926193;28;95312;-81
2023/01/30 14:45:52;;;;;;;6.38;1.35;;;;;;;;;;4929188;28;95205;-81
2023/01/30 14:48:37;;;;;;;5.32;1.27;;;;;;;;;;4918250;28;93080;-80
2023/01/30 14:51:22;;;;;;;7.28;1.48;;;;;;;;;;4930676;28;92728;-81
2023/01/30 14:53:57;;;;;;;6.32;1.48;;;;;;;;;;4935374;28;93222;-81
2023/01/30 14:56:42;;;;;;;5.55;1.30;;;;;;;;;;4939202;28;93860;-80
2023/01/30 14:59:14;;;;;;;7.10;1.40;;;;;;;;;;4929561;28;96310;-80
2023/01/30 15:02:01;;;;;;;4.78;1.40;;;;;;;;;;4940928;28;92533;-80
2023/01/30 15:04:33;;;;;;;6.38;1.40;;;;;;;;;;4936306;28;92945;-80
2023/01/30 15:07:01;;;;;;;5.55;1.40;;;;;;;;;;4932199;28;93477;-80
2023/01/30 15:09:28;;;;;;;8.07;1.58;;;;;;;;;;4939703;28;96876;-82
2023/01/30 15:12:18;;;;;;;4.93;1.23;;;;;;;;;;4942964;28;92736;-81